sensor_id;sensor_type;location;lat;lon;timestamp;P1;durP1;ratioP1;P2;durP2;ratioP2
58071;SDS011;60383;46.626;18.866;2022-10-17T00:01:20;11.80;;;8.05;;
58071;SDS011;60383;46.626;18.866;2022-10-17T00:03:46;11.05;;;8.45;;
58071;SDS011;60383;46.626;18.866;2022-10-17T00:06:12;12.00;;;8.60;;
58071;SDS011;60383;46.626;18.866;2022-10-17T00:08:42;12.02;;;9.20;;
58071;SDS011;60383;46.626;18.866;2022-10-17T00:11:19;10.38;;;8.43;;
58071;SDS011;60383;46.626;18.866;2022-10-17T00:13:47;14.32;;;8.88;;
58071;SDS011;60383;46.626;18.866;2022-10-17T00:16:14;15.73;;;11.82;;
58071;SDS011;60383;46.626;18.866;2022-10-17T00:18:46;11.18;;;8.40;;
58071;SDS011;60383;46.626;18.866;2022-10-17T00:21:15;11.32;;;8.18;;
58071;SDS011;60383;46.626;18.866;2022-10-17T00:23:42;11.85;;;8.75;;
58071;SDS011;60383;46.626;18.866;2022-10-17T00:26:08;8.80;;;7.78;;
58071;SDS011;60383;46.626;18.866;2022-10-17T00:28:34;13.23;;;8.50;;
58071;SDS011;60383;46.626;18.866;2022-10-17T00:31:00;10.75;;;8.27;;
58071;SDS011;60383;46.626;18.866;2022-10-17T00:33:28;10.60;;;8.60;;
58071;SDS011;60383;46.626;18.866;2022-10-17T00:36:05;11.40;;;9.05;;
58071;SDS011;60383;46.626;18.866;2022-10-17T00:38:31;13.73;;;9.45;;
58071;SDS011;60383;46.626;18.866;2022-10-17T00:40:56;11.60;;;9.20;;
58071;SDS011;60383;46.626;18.866;2022-10-17T00:43:22;14.25;;;9.25;;
58071;SDS011;60383;46.626;18.866;2022-10-17T00:45:47;12.75;;;9.20;;
58071;SDS011;60383;46.626;18.866;2022-10-17T00:48:13;11.02;;;9.27;;
58071;SDS011;60383;46.626;18.866;2022-10-17T00:50:40;10.88;;;8.85;;
58071;SDS011;60383;46.626;18.866;2022-10-17T00:53:08;12.02;;;9.02;;
58071;SDS011;60383;46.626;18.866;2022-10-17T00:55:41;11.10;;;9.18;;
58071;SDS011;60383;46.626;18.866;2022-10-17T00:58:18;11.32;;;9.10;;
58071;SDS011;60383;46.626;18.866;2022-10-17T01:00:45;10.50;;;8.75;;
58071;SDS011;60383;46.626;18.866;2022-10-17T01:03:12;11.77;;;8.93;;
58071;SDS011;60383;46.626;18.866;2022-10-17T01:05:38;11.00;;;8.98;;
58071;SDS011;60383;46.626;18.866;2022-10-17T01:08:05;11.02;;;9.18;;
58071;SDS011;60383;46.626;18.866;2022-10-17T01:10:47;10.50;;;9.30;;
58071;SDS011;60383;46.626;18.866;2022-10-17T01:13:34;12.60;;;8.73;;
58071;SDS011;60383;46.626;18.866;2022-10-17T01:18:55;11.57;;;8.93;;
58071;SDS011;60383;46.626;18.866;2022-10-17T01:24:32;14.30;;;9.32;;
58071;SDS011;60383;46.626;18.866;2022-10-17T01:33:13;10.82;;;8.95;;
58071;SDS011;60383;46.626;18.866;2022-10-17T01:35:52;11.38;;;8.70;;
58071;SDS011;60383;46.626;18.866;2022-10-17T01:38:43;12.68;;;9.52;;
58071;SDS011;60383;46.626;18.866;2022-10-17T01:41:20;12.90;;;9.43;;
58071;SDS011;60383;46.626;18.866;2022-10-17T01:43:52;13.52;;;10.52;;
58071;SDS011;60383;46.626;18.866;2022-10-17T01:48:51;11.43;;;9.40;;
58071;SDS011;60383;46.626;18.866;2022-10-17T01:51:22;12.68;;;9.63;;
58071;SDS011;60383;46.626;18.866;2022-10-17T01:56:47;15.95;;;9.52;;
58071;SDS011;60383;46.626;18.866;2022-10-17T01:59:17;14.27;;;10.27;;
58071;SDS011;60383;46.626;18.866;2022-10-17T02:04:14;12.60;;;9.05;;
58071;SDS011;60383;46.626;18.866;2022-10-17T02:06:40;11.60;;;9.50;;
58071;SDS011;60383;46.626;18.866;2022-10-17T02:11:58;11.07;;;8.43;;
58071;SDS011;60383;46.626;18.866;2022-10-17T02:14:40;12.30;;;9.75;;
58071;SDS011;60383;46.626;18.866;2022-10-17T02:20:14;14.73;;;9.40;;
58071;SDS011;60383;46.626;18.866;2022-10-17T02:25:38;14.10;;;9.93;;
58071;SDS011;60383;46.626;18.866;2022-10-17T02:30:53;12.20;;;9.32;;
58071;SDS011;60383;46.626;18.866;2022-10-17T02:33:54;12.38;;;9.45;;
58071;SDS011;60383;46.626;18.866;2022-10-17T02:36:25;10.40;;;9.07;;
58071;SDS011;60383;46.626;18.866;2022-10-17T02:38:54;11.40;;;9.48;;
58071;SDS011;60383;46.626;18.866;2022-10-17T02:41:21;13.23;;;9.90;;
58071;SDS011;60383;46.626;18.866;2022-10-17T02:43:48;11.63;;;10.10;;
58071;SDS011;60383;46.626;18.866;2022-10-17T02:46:15;13.40;;;9.98;;
58071;SDS011;60383;46.626;18.866;2022-10-17T02:49:06;12.90;;;9.63;;
58071;SDS011;60383;46.626;18.866;2022-10-17T02:51:51;13.27;;;9.45;;
58071;SDS011;60383;46.626;18.866;2022-10-17T02:54:40;15.40;;;9.63;;
58071;SDS011;60383;46.626;18.866;2022-10-17T02:57:11;12.52;;;9.98;;
58071;SDS011;60383;46.626;18.866;2022-10-17T02:59:43;14.15;;;10.30;;
58071;SDS011;60383;46.626;18.866;2022-10-17T03:02:10;13.30;;;10.25;;
58071;SDS011;60383;46.626;18.866;2022-10-17T03:04:35;14.15;;;9.95;;
58071;SDS011;60383;46.626;18.866;2022-10-17T03:07:01;13.05;;;9.95;;
58071;SDS011;60383;46.626;18.866;2022-10-17T03:09:27;13.48;;;10.15;;
58071;SDS011;60383;46.626;18.866;2022-10-17T03:11:52;13.25;;;9.68;;
58071;SDS011;60383;46.626;18.866;2022-10-17T03:14:18;13.07;;;10.27;;
58071;SDS011;60383;46.626;18.866;2022-10-17T03:16:43;13.82;;;10.25;;
58071;SDS011;60383;46.626;18.866;2022-10-17T03:19:08;14.93;;;10.57;;
58071;SDS011;60383;46.626;18.866;2022-10-17T03:21:34;12.57;;;10.35;;
58071;SDS011;60383;46.626;18.866;2022-10-17T03:24:03;12.77;;;10.60;;
58071;SDS011;60383;46.626;18.866;2022-10-17T03:26:28;14.40;;;10.18;;
58071;SDS011;60383;46.626;18.866;2022-10-17T03:28:54;13.50;;;10.77;;
58071;SDS011;60383;46.626;18.866;2022-10-17T03:31:20;12.30;;;10.40;;
58071;SDS011;60383;46.626;18.866;2022-10-17T03:33:45;13.13;;;10.77;;
58071;SDS011;60383;46.626;18.866;2022-10-17T03:36:12;14.40;;;10.82;;
58071;SDS011;60383;46.626;18.866;2022-10-17T03:38:40;15.70;;;12.05;;
58071;SDS011;60383;46.626;18.866;2022-10-17T03:41:06;14.23;;;10.55;;
58071;SDS011;60383;46.626;18.866;2022-10-17T03:43:31;15.20;;;11.13;;
58071;SDS011;60383;46.626;18.866;2022-10-17T03:45:57;13.35;;;11.20;;
58071;SDS011;60383;46.626;18.866;2022-10-17T03:48:24;14.50;;;11.05;;
58071;SDS011;60383;46.626;18.866;2022-10-17T03:50:50;13.95;;;10.60;;
58071;SDS011;60383;46.626;18.866;2022-10-17T03:53:15;14.50;;;11.07;;
58071;SDS011;60383;46.626;18.866;2022-10-17T03:55:41;15.52;;;10.23;;
58071;SDS011;60383;46.626;18.866;2022-10-17T03:58:06;15.88;;;11.73;;
58071;SDS011;60383;46.626;18.866;2022-10-17T04:00:32;14.35;;;10.98;;
58071;SDS011;60383;46.626;18.866;2022-10-17T04:02:59;14.30;;;11.23;;
58071;SDS011;60383;46.626;18.866;2022-10-17T04:05:25;14.38;;;10.75;;
58071;SDS011;60383;46.626;18.866;2022-10-17T04:07:50;17.27;;;12.93;;
58071;SDS011;60383;46.626;18.866;2022-10-17T04:10:16;35.20;;;29.13;;
58071;SDS011;60383;46.626;18.866;2022-10-17T04:12:41;17.27;;;13.13;;
58071;SDS011;60383;46.626;18.866;2022-10-17T04:15:07;29.30;;;20.90;;
58071;SDS011;60383;46.626;18.866;2022-10-17T04:17:33;15.93;;;13.20;;
58071;SDS011;60383;46.626;18.866;2022-10-17T04:19:58;25.98;;;19.15;;
58071;SDS011;60383;46.626;18.866;2022-10-17T04:22:24;31.08;;;22.77;;
58071;SDS011;60383;46.626;18.866;2022-10-17T04:24:49;15.50;;;11.88;;
58071;SDS011;60383;46.626;18.866;2022-10-17T04:27:14;17.02;;;11.65;;
58071;SDS011;60383;46.626;18.866;2022-10-17T04:29:40;16.50;;;12.10;;
58071;SDS011;60383;46.626;18.866;2022-10-17T04:32:05;14.35;;;11.95;;
58071;SDS011;60383;46.626;18.866;2022-10-17T04:34:31;15.48;;;11.02;;
58071;SDS011;60383;46.626;18.866;2022-10-17T04:36:56;15.52;;;11.90;;
58071;SDS011;60383;46.626;18.866;2022-10-17T04:39:22;16.88;;;11.70;;
58071;SDS011;60383;46.626;18.866;2022-10-17T04:41:47;16.27;;;11.20;;
58071;SDS011;60383;46.626;18.866;2022-10-17T04:44:12;12.77;;;11.35;;
58071;SDS011;60383;46.626;18.866;2022-10-17T04:46:38;14.73;;;11.80;;
58071;SDS011;60383;46.626;18.866;2022-10-17T04:49:03;15.63;;;11.05;;
58071;SDS011;60383;46.626;18.866;2022-10-17T04:51:29;14.57;;;11.57;;
58071;SDS011;60383;46.626;18.866;2022-10-17T04:53:54;15.80;;;11.57;;
58071;SDS011;60383;46.626;18.866;2022-10-17T04:56:21;14.23;;;11.30;;
58071;SDS011;60383;46.626;18.866;2022-10-17T04:58:47;15.07;;;11.30;;
58071;SDS011;60383;46.626;18.866;2022-10-17T05:01:14;13.95;;;11.27;;
58071;SDS011;60383;46.626;18.866;2022-10-17T05:03:41;16.85;;;11.77;;
58071;SDS011;60383;46.626;18.866;2022-10-17T05:06:08;17.58;;;11.57;;
58071;SDS011;60383;46.626;18.866;2022-10-17T05:08:35;17.35;;;11.88;;
58071;SDS011;60383;46.626;18.866;2022-10-17T05:11:01;16.17;;;12.00;;
58071;SDS011;60383;46.626;18.866;2022-10-17T05:13:27;16.52;;;12.70;;
58071;SDS011;60383;46.626;18.866;2022-10-17T05:15:53;14.60;;;12.25;;
58071;SDS011;60383;46.626;18.866;2022-10-17T05:18:22;16.25;;;12.52;;
58071;SDS011;60383;46.626;18.866;2022-10-17T05:20:48;15.95;;;12.18;;
58071;SDS011;60383;46.626;18.866;2022-10-17T05:23:13;15.57;;;11.55;;
58071;SDS011;60383;46.626;18.866;2022-10-17T05:25:39;17.05;;;11.73;;
58071;SDS011;60383;46.626;18.866;2022-10-17T05:28:04;16.75;;;12.35;;
58071;SDS011;60383;46.626;18.866;2022-10-17T05:30:29;15.70;;;12.63;;
58071;SDS011;60383;46.626;18.866;2022-10-17T05:32:55;17.95;;;12.63;;
58071;SDS011;60383;46.626;18.866;2022-10-17T05:35:20;14.85;;;11.43;;
58071;SDS011;60383;46.626;18.866;2022-10-17T05:37:47;14.45;;;11.50;;
58071;SDS011;60383;46.626;18.866;2022-10-17T05:40:13;18.10;;;11.85;;
58071;SDS011;60383;46.626;18.866;2022-10-17T05:42:38;17.63;;;12.63;;
58071;SDS011;60383;46.626;18.866;2022-10-17T05:45:04;15.00;;;11.80;;
58071;SDS011;60383;46.626;18.866;2022-10-17T05:47:29;15.85;;;11.23;;
58071;SDS011;60383;46.626;18.866;2022-10-17T05:49:55;14.85;;;11.30;;
58071;SDS011;60383;46.626;18.866;2022-10-17T05:52:20;16.58;;;11.10;;
58071;SDS011;60383;46.626;18.866;2022-10-17T05:54:46;13.82;;;11.20;;
58071;SDS011;60383;46.626;18.866;2022-10-17T05:57:11;15.95;;;11.23;;
58071;SDS011;60383;46.626;18.866;2022-10-17T05:59:37;17.63;;;11.98;;
58071;SDS011;60383;46.626;18.866;2022-10-17T06:02:02;15.75;;;11.48;;
58071;SDS011;60383;46.626;18.866;2022-10-17T06:04:28;17.35;;;11.65;;
58071;SDS011;60383;46.626;18.866;2022-10-17T06:06:53;14.15;;;10.75;;
58071;SDS011;60383;46.626;18.866;2022-10-17T06:09:20;13.80;;;10.75;;
58071;SDS011;60383;46.626;18.866;2022-10-17T06:11:46;15.25;;;10.98;;
58071;SDS011;60383;46.626;18.866;2022-10-17T06:14:11;16.73;;;11.20;;
58071;SDS011;60383;46.626;18.866;2022-10-17T06:16:36;14.50;;;11.20;;
58071;SDS011;60383;46.626;18.866;2022-10-17T06:19:02;13.82;;;11.27;;
58071;SDS011;60383;46.626;18.866;2022-10-17T06:21:27;12.90;;;10.95;;
58071;SDS011;60383;46.626;18.866;2022-10-17T06:23:54;13.90;;;11.18;;
58071;SDS011;60383;46.626;18.866;2022-10-17T06:26:19;16.40;;;9.98;;
58071;SDS011;60383;46.626;18.866;2022-10-17T06:28:44;12.35;;;10.32;;
58071;SDS011;60383;46.626;18.866;2022-10-17T06:31:11;12.18;;;10.60;;
58071;SDS011;60383;46.626;18.866;2022-10-17T06:33:38;16.35;;;11.25;;
58071;SDS011;60383;46.626;18.866;2022-10-17T06:36:04;14.20;;;11.20;;
58071;SDS011;60383;46.626;18.866;2022-10-17T06:38:30;16.35;;;10.25;;
58071;SDS011;60383;46.626;18.866;2022-10-17T06:41:10;14.98;;;11.15;;
58071;SDS011;60383;46.626;18.866;2022-10-17T06:43:40;14.15;;;10.88;;
58071;SDS011;60383;46.626;18.866;2022-10-17T06:46:07;14.15;;;11.70;;
58071;SDS011;60383;46.626;18.866;2022-10-17T06:48:33;16.02;;;10.50;;
58071;SDS011;60383;46.626;18.866;2022-10-17T06:50:59;13.90;;;10.55;;
58071;SDS011;60383;46.626;18.866;2022-10-17T06:53:29;15.38;;;10.75;;
58071;SDS011;60383;46.626;18.866;2022-10-17T06:55:55;14.10;;;10.68;;
58071;SDS011;60383;46.626;18.866;2022-10-17T06:58:25;13.00;;;10.20;;
58071;SDS011;60383;46.626;18.866;2022-10-17T07:00:56;12.23;;;10.20;;
58071;SDS011;60383;46.626;18.866;2022-10-17T07:03:23;14.73;;;10.60;;
58071;SDS011;60383;46.626;18.866;2022-10-17T07:05:51;14.05;;;10.80;;
58071;SDS011;60383;46.626;18.866;2022-10-17T07:08:17;13.05;;;9.98;;
58071;SDS011;60383;46.626;18.866;2022-10-17T07:10:43;13.38;;;10.27;;
58071;SDS011;60383;46.626;18.866;2022-10-17T07:13:08;12.38;;;9.95;;
58071;SDS011;60383;46.626;18.866;2022-10-17T07:15:35;13.38;;;10.45;;
58071;SDS011;60383;46.626;18.866;2022-10-17T07:18:00;13.45;;;10.73;;
58071;SDS011;60383;46.626;18.866;2022-10-17T07:20:26;12.85;;;10.07;;
58071;SDS011;60383;46.626;18.866;2022-10-17T07:22:51;16.23;;;10.40;;
58071;SDS011;60383;46.626;18.866;2022-10-17T07:25:16;12.52;;;9.82;;
58071;SDS011;60383;46.626;18.866;2022-10-17T07:27:42;14.02;;;10.13;;
58071;SDS011;60383;46.626;18.866;2022-10-17T07:30:07;13.65;;;10.73;;
58071;SDS011;60383;46.626;18.866;2022-10-17T07:32:33;12.55;;;9.98;;
58071;SDS011;60383;46.626;18.866;2022-10-17T07:34:59;15.63;;;10.75;;
58071;SDS011;60383;46.626;18.866;2022-10-17T07:37:24;17.92;;;10.55;;
58071;SDS011;60383;46.626;18.866;2022-10-17T07:39:49;12.95;;;10.05;;
58071;SDS011;60383;46.626;18.866;2022-10-17T07:42:15;12.60;;;10.27;;
58071;SDS011;60383;46.626;18.866;2022-10-17T07:44:40;13.88;;;9.77;;
58071;SDS011;60383;46.626;18.866;2022-10-17T07:47:06;13.85;;;10.00;;
58071;SDS011;60383;46.626;18.866;2022-10-17T07:49:31;12.07;;;9.73;;
58071;SDS011;60383;46.626;18.866;2022-10-17T07:51:56;12.02;;;9.65;;
58071;SDS011;60383;46.626;18.866;2022-10-17T07:54:22;13.73;;;10.05;;
58071;SDS011;60383;46.626;18.866;2022-10-17T07:56:47;13.63;;;10.55;;
58071;SDS011;60383;46.626;18.866;2022-10-17T07:59:15;13.30;;;9.88;;
58071;SDS011;60383;46.626;18.866;2022-10-17T08:01:41;13.63;;;9.98;;
58071;SDS011;60383;46.626;18.866;2022-10-17T08:04:07;17.30;;;10.60;;
58071;SDS011;60383;46.626;18.866;2022-10-17T08:06:32;14.77;;;10.48;;
58071;SDS011;60383;46.626;18.866;2022-10-17T08:08:58;12.63;;;10.35;;
58071;SDS011;60383;46.626;18.866;2022-10-17T08:11:25;13.32;;;9.85;;
58071;SDS011;60383;46.626;18.866;2022-10-17T08:13:51;12.23;;;10.13;;
58071;SDS011;60383;46.626;18.866;2022-10-17T08:16:16;16.83;;;10.68;;
58071;SDS011;60383;46.626;18.866;2022-10-17T08:18:42;11.43;;;9.88;;
58071;SDS011;60383;46.626;18.866;2022-10-17T08:21:07;13.00;;;9.90;;
58071;SDS011;60383;46.626;18.866;2022-10-17T08:23:34;13.52;;;9.75;;
58071;SDS011;60383;46.626;18.866;2022-10-17T08:26:01;11.70;;;9.23;;
58071;SDS011;60383;46.626;18.866;2022-10-17T08:28:27;16.05;;;9.93;;
58071;SDS011;60383;46.626;18.866;2022-10-17T08:31:00;10.18;;;9.18;;
58071;SDS011;60383;46.626;18.866;2022-10-17T08:33:27;13.07;;;9.82;;
58071;SDS011;60383;46.626;18.866;2022-10-17T08:35:52;11.30;;;8.40;;
58071;SDS011;60383;46.626;18.866;2022-10-17T08:38:18;11.32;;;8.70;;
58071;SDS011;60383;46.626;18.866;2022-10-17T08:40:43;11.98;;;8.77;;
58071;SDS011;60383;46.626;18.866;2022-10-17T08:43:35;10.80;;;8.60;;
58071;SDS011;60383;46.626;18.866;2022-10-17T08:46:19;9.27;;;8.38;;
58071;SDS011;60383;46.626;18.866;2022-10-17T08:48:45;11.55;;;8.35;;
58071;SDS011;60383;46.626;18.866;2022-10-17T08:51:19;13.40;;;8.10;;
58071;SDS011;60383;46.626;18.866;2022-10-17T08:54:24;9.18;;;7.55;;
58071;SDS011;60383;46.626;18.866;2022-10-17T08:56:44;10.55;;;8.02;;
58071;SDS011;60383;46.626;18.866;2022-10-17T08:59:13;10.00;;;7.78;;
58071;SDS011;60383;46.626;18.866;2022-10-17T09:01:49;8.75;;;7.72;;
58071;SDS011;60383;46.626;18.866;2022-10-17T09:04:30;12.68;;;7.65;;
58071;SDS011;60383;46.626;18.866;2022-10-17T09:18:25;10.35;;;7.38;;
58071;SDS011;60383;46.626;18.866;2022-10-17T09:20:59;8.15;;;6.82;;
58071;SDS011;60383;46.626;18.866;2022-10-17T09:23:40;21.15;;;7.65;;
58071;SDS011;60383;46.626;18.866;2022-10-17T09:26:12;9.25;;;6.90;;
58071;SDS011;60383;46.626;18.866;2022-10-17T09:28:39;7.45;;;6.07;;
58071;SDS011;60383;46.626;18.866;2022-10-17T09:31:10;13.45;;;6.22;;
58071;SDS011;60383;46.626;18.866;2022-10-17T09:33:51;11.82;;;7.65;;
58071;SDS011;60383;46.626;18.866;2022-10-17T09:36:22;8.82;;;5.88;;
58071;SDS011;60383;46.626;18.866;2022-10-17T09:38:55;8.52;;;5.88;;
58071;SDS011;60383;46.626;18.866;2022-10-17T09:41:26;7.78;;;5.43;;
58071;SDS011;60383;46.626;18.866;2022-10-17T09:43:58;8.43;;;5.78;;
58071;SDS011;60383;46.626;18.866;2022-10-17T09:49:27;7.72;;;5.47;;
58071;SDS011;60383;46.626;18.866;2022-10-17T09:51:56;6.53;;;5.32;;
58071;SDS011;60383;46.626;18.866;2022-10-17T09:54:23;7.93;;;5.20;;
58071;SDS011;60383;46.626;18.866;2022-10-17T09:57:02;7.85;;;5.47;;
58071;SDS011;60383;46.626;18.866;2022-10-17T10:00:19;6.65;;;5.10;;
58071;SDS011;60383;46.626;18.866;2022-10-17T10:02:26;7.70;;;5.32;;
58071;SDS011;60383;46.626;18.866;2022-10-17T10:07:18;7.25;;;5.38;;
58071;SDS011;60383;46.626;18.866;2022-10-17T10:09:48;7.78;;;5.30;;
58071;SDS011;60383;46.626;18.866;2022-10-17T10:12:34;6.93;;;5.68;;
58071;SDS011;60383;46.626;18.866;2022-10-17T10:15:01;7.97;;;5.00;;
58071;SDS011;60383;46.626;18.866;2022-10-17T10:18:01;6.22;;;4.43;;
58071;SDS011;60383;46.626;18.866;2022-10-17T10:20:33;6.68;;;4.72;;
58071;SDS011;60383;46.626;18.866;2022-10-17T10:23:14;5.60;;;4.75;;
58071;SDS011;60383;46.626;18.866;2022-10-17T10:25:55;6.68;;;4.60;;
58071;SDS011;60383;46.626;18.866;2022-10-17T10:28:27;8.18;;;4.75;;
58071;SDS011;60383;46.626;18.866;2022-10-17T10:30:58;6.38;;;4.72;;
58071;SDS011;60383;46.626;18.866;2022-10-17T10:33:26;7.15;;;4.70;;
58071;SDS011;60383;46.626;18.866;2022-10-17T10:35:54;8.70;;;4.82;;
58071;SDS011;60383;46.626;18.866;2022-10-17T10:38:26;6.13;;;4.10;;
58071;SDS011;60383;46.626;18.866;2022-10-17T10:40:53;5.95;;;4.50;;
58071;SDS011;60383;46.626;18.866;2022-10-17T10:43:48;4.75;;;4.22;;
58071;SDS011;60383;46.626;18.866;2022-10-17T10:46:17;4.47;;;4.07;;
58071;SDS011;60383;46.626;18.866;2022-10-17T10:48:49;6.00;;;4.18;;
58071;SDS011;60383;46.626;18.866;2022-10-17T10:51:15;9.00;;;4.32;;
58071;SDS011;60383;46.626;18.866;2022-10-17T10:56:24;4.70;;;3.88;;
58071;SDS011;60383;46.626;18.866;2022-10-17T10:58:59;5.53;;;3.70;;
58071;SDS011;60383;46.626;18.866;2022-10-17T11:01:53;7.07;;;4.32;;
58071;SDS011;60383;46.626;18.866;2022-10-17T11:06:57;5.25;;;3.65;;
58071;SDS011;60383;46.626;18.866;2022-10-17T11:12:05;6.57;;;3.60;;
58071;SDS011;60383;46.626;18.866;2022-10-17T11:17:24;5.22;;;4.10;;
58071;SDS011;60383;46.626;18.866;2022-10-17T11:22:36;7.22;;;4.03;;
58071;SDS011;60383;46.626;18.866;2022-10-17T11:28:01;6.45;;;3.80;;
58071;SDS011;60383;46.626;18.866;2022-10-17T11:30:38;5.50;;;3.63;;
58071;SDS011;60383;46.626;18.866;2022-10-17T11:33:08;8.60;;;3.88;;
58071;SDS011;60383;46.626;18.866;2022-10-17T11:35:40;4.18;;;3.70;;
58071;SDS011;60383;46.626;18.866;2022-10-17T11:41:28;5.97;;;3.80;;
58071;SDS011;60383;46.626;18.866;2022-10-17T11:43:56;5.63;;;4.20;;
58071;SDS011;60383;46.626;18.866;2022-10-17T11:46:31;6.93;;;3.47;;
58071;SDS011;60383;46.626;18.866;2022-10-17T11:51:35;4.93;;;3.33;;
58071;SDS011;60383;46.626;18.866;2022-10-17T11:59:56;5.70;;;3.47;;
58071;SDS011;60383;46.626;18.866;2022-10-17T12:02:29;5.13;;;3.80;;
58071;SDS011;60383;46.626;18.866;2022-10-17T12:04:58;6.10;;;3.78;;
58071;SDS011;60383;46.626;18.866;2022-10-17T12:10:19;6.22;;;4.03;;
58071;SDS011;60383;46.626;18.866;2022-10-17T12:12:55;8.43;;;3.55;;
58071;SDS011;60383;46.626;18.866;2022-10-17T12:18:00;9.17;;;4.03;;
58071;SDS011;60383;46.626;18.866;2022-10-17T12:20:36;6.13;;;3.58;;
58071;SDS011;60383;46.626;18.866;2022-10-17T12:25:47;4.85;;;3.70;;
58071;SDS011;60383;46.626;18.866;2022-10-17T12:38:51;6.43;;;3.72;;
58071;SDS011;60383;46.626;18.866;2022-10-17T12:46:50;5.55;;;4.07;;
58071;SDS011;60383;46.626;18.866;2022-10-17T12:49:45;7.28;;;4.43;;
58071;SDS011;60383;46.626;18.866;2022-10-17T12:54:56;6.75;;;4.00;;
58071;SDS011;60383;46.626;18.866;2022-10-17T13:00:32;5.65;;;3.92;;
58071;SDS011;60383;46.626;18.866;2022-10-17T13:03:17;6.15;;;3.70;;
58071;SDS011;60383;46.626;18.866;2022-10-17T13:05:47;6.88;;;4.82;;
58071;SDS011;60383;46.626;18.866;2022-10-17T13:08:17;13.18;;;4.40;;
58071;SDS011;60383;46.626;18.866;2022-10-17T13:10:46;6.68;;;3.85;;
58071;SDS011;60383;46.626;18.866;2022-10-17T13:16:07;6.85;;;4.00;;
58071;SDS011;60383;46.626;18.866;2022-10-17T13:18:33;6.32;;;3.80;;
58071;SDS011;60383;46.626;18.866;2022-10-17T13:23:24;8.45;;;4.10;;
58071;SDS011;60383;46.626;18.866;2022-10-17T13:28:45;5.18;;;3.80;;
58071;SDS011;60383;46.626;18.866;2022-10-17T13:33:56;7.07;;;3.83;;
58071;SDS011;60383;46.626;18.866;2022-10-17T13:36:24;6.88;;;3.72;;
58071;SDS011;60383;46.626;18.866;2022-10-17T13:38:51;6.05;;;4.30;;
58071;SDS011;60383;46.626;18.866;2022-10-17T13:41:17;7.03;;;4.10;;
58071;SDS011;60383;46.626;18.866;2022-10-17T13:43:49;6.95;;;4.22;;
58071;SDS011;60383;46.626;18.866;2022-10-17T13:46:17;7.78;;;4.22;;
58071;SDS011;60383;46.626;18.866;2022-10-17T13:48:49;9.77;;;3.88;;
58071;SDS011;60383;46.626;18.866;2022-10-17T13:51:14;6.80;;;4.32;;
58071;SDS011;60383;46.626;18.866;2022-10-17T13:53:40;8.38;;;4.47;;
58071;SDS011;60383;46.626;18.866;2022-10-17T13:58:53;8.38;;;4.03;;
58071;SDS011;60383;46.626;18.866;2022-10-17T14:01:22;7.13;;;4.20;;
58071;SDS011;60383;46.626;18.866;2022-10-17T14:03:49;8.57;;;4.82;;
58071;SDS011;60383;46.626;18.866;2022-10-17T14:11:36;6.95;;;4.07;;
58071;SDS011;60383;46.626;18.866;2022-10-17T14:14:15;5.65;;;4.20;;
58071;SDS011;60383;46.626;18.866;2022-10-17T14:16:46;7.13;;;3.80;;
58071;SDS011;60383;46.626;18.866;2022-10-17T14:19:15;8.15;;;4.18;;
58071;SDS011;60383;46.626;18.866;2022-10-17T14:21:46;7.32;;;4.43;;
58071;SDS011;60383;46.626;18.866;2022-10-17T14:24:25;5.43;;;3.88;;
58071;SDS011;60383;46.626;18.866;2022-10-17T14:26:53;5.72;;;4.07;;
58071;SDS011;60383;46.626;18.866;2022-10-17T14:31:49;8.65;;;4.25;;
58071;SDS011;60383;46.626;18.866;2022-10-17T14:34:36;7.50;;;4.18;;
58071;SDS011;60383;46.626;18.866;2022-10-17T14:37:08;8.50;;;3.70;;
58071;SDS011;60383;46.626;18.866;2022-10-17T14:39:35;7.65;;;4.13;;
58071;SDS011;60383;46.626;18.866;2022-10-17T14:42:01;9.45;;;4.13;;
58071;SDS011;60383;46.626;18.866;2022-10-17T14:46:56;5.13;;;4.03;;
58071;SDS011;60383;46.626;18.866;2022-10-17T14:49:31;6.00;;;4.28;;
58071;SDS011;60383;46.626;18.866;2022-10-17T14:54:58;8.50;;;4.40;;
58071;SDS011;60383;46.626;18.866;2022-10-17T14:57:38;5.40;;;4.13;;
58071;SDS011;60383;46.626;18.866;2022-10-17T15:00:06;5.82;;;4.15;;
58071;SDS011;60383;46.626;18.866;2022-10-17T15:02:34;6.63;;;4.30;;
58071;SDS011;60383;46.626;18.866;2022-10-17T15:05:00;7.45;;;4.20;;
58071;SDS011;60383;46.626;18.866;2022-10-17T15:07:25;6.50;;;4.50;;
58071;SDS011;60383;46.626;18.866;2022-10-17T15:09:51;10.93;;;4.25;;
58071;SDS011;60383;46.626;18.866;2022-10-17T15:12:19;6.20;;;3.63;;
58071;SDS011;60383;46.626;18.866;2022-10-17T15:14:46;6.68;;;4.50;;
58071;SDS011;60383;46.626;18.866;2022-10-17T15:17:26;13.35;;;6.15;;
58071;SDS011;60383;46.626;18.866;2022-10-17T15:19:52;12.52;;;4.32;;
58071;SDS011;60383;46.626;18.866;2022-10-17T15:22:18;8.88;;;4.50;;
58071;SDS011;60383;46.626;18.866;2022-10-17T15:24:44;10.20;;;5.15;;
58071;SDS011;60383;46.626;18.866;2022-10-17T15:27:14;8.23;;;4.80;;
58071;SDS011;60383;46.626;18.866;2022-10-17T15:29:47;6.78;;;4.40;;
58071;SDS011;60383;46.626;18.866;2022-10-17T15:32:13;8.45;;;4.45;;
58071;SDS011;60383;46.626;18.866;2022-10-17T15:34:39;9.23;;;4.47;;
58071;SDS011;60383;46.626;18.866;2022-10-17T15:37:05;5.75;;;4.20;;
58071;SDS011;60383;46.626;18.866;2022-10-17T15:39:31;6.97;;;4.50;;
58071;SDS011;60383;46.626;18.866;2022-10-17T15:41:57;8.50;;;4.30;;
58071;SDS011;60383;46.626;18.866;2022-10-17T15:44:23;8.73;;;4.47;;
58071;SDS011;60383;46.626;18.866;2022-10-17T15:46:49;12.82;;;4.53;;
58071;SDS011;60383;46.626;18.866;2022-10-17T15:49:15;9.82;;;4.18;;
58071;SDS011;60383;46.626;18.866;2022-10-17T15:51:43;6.32;;;4.35;;
58071;SDS011;60383;46.626;18.866;2022-10-17T15:54:09;7.45;;;4.60;;
58071;SDS011;60383;46.626;18.866;2022-10-17T15:56:41;8.45;;;4.95;;
58071;SDS011;60383;46.626;18.866;2022-10-17T15:59:12;8.40;;;5.00;;
58071;SDS011;60383;46.626;18.866;2022-10-17T16:01:40;7.72;;;4.97;;
58071;SDS011;60383;46.626;18.866;2022-10-17T16:04:08;8.82;;;4.85;;
58071;SDS011;60383;46.626;18.866;2022-10-17T16:06:39;7.60;;;4.40;;
58071;SDS011;60383;46.626;18.866;2022-10-17T16:09:05;7.78;;;4.53;;
58071;SDS011;60383;46.626;18.866;2022-10-17T16:11:32;9.00;;;4.90;;
58071;SDS011;60383;46.626;18.866;2022-10-17T16:14:02;10.80;;;8.60;;
58071;SDS011;60383;46.626;18.866;2022-10-17T16:16:30;9.77;;;4.97;;
58071;SDS011;60383;46.626;18.866;2022-10-17T16:18:56;9.65;;;5.28;;
58071;SDS011;60383;46.626;18.866;2022-10-17T16:21:23;8.80;;;4.68;;
58071;SDS011;60383;46.626;18.866;2022-10-17T16:23:50;8.00;;;4.85;;
58071;SDS011;60383;46.626;18.866;2022-10-17T16:26:16;7.38;;;4.72;;
58071;SDS011;60383;46.626;18.866;2022-10-17T16:28:42;14.65;;;5.25;;
58071;SDS011;60383;46.626;18.866;2022-10-17T16:31:26;10.10;;;5.25;;
58071;SDS011;60383;46.626;18.866;2022-10-17T16:33:55;8.77;;;5.10;;
58071;SDS011;60383;46.626;18.866;2022-10-17T16:36:22;6.60;;;4.93;;
58071;SDS011;60383;46.626;18.866;2022-10-17T16:38:47;11.57;;;5.35;;
58071;SDS011;60383;46.626;18.866;2022-10-17T16:43:57;7.72;;;5.35;;
58071;SDS011;60383;46.626;18.866;2022-10-17T16:46:24;11.55;;;5.55;;
58071;SDS011;60383;46.626;18.866;2022-10-17T16:48:50;11.23;;;5.32;;